createdAt,value
2018-05-03T00:00:58.510Z,0
2018-05-03T00:01:59.109Z,0
2018-05-03T00:02:59.683Z,0
2018-05-03T00:04:00.195Z,0
2018-05-03T00:05:00.742Z,0
2018-05-03T00:06:01.294Z,0
2018-05-03T00:07:01.844Z,0
2018-05-03T00:08:02.393Z,0
2018-05-03T00:09:02.936Z,0
2018-05-03T00:10:03.485Z,0
2018-05-03T00:11:04.036Z,0
2018-05-03T00:12:04.589Z,0
2018-05-03T00:13:05.134Z,0
2018-05-03T00:14:05.682Z,0
2018-05-03T00:15:06.233Z,0
2018-05-03T00:16:06.778Z,0
2018-05-03T00:17:07.332Z,0
2018-05-03T00:18:07.874Z,0
2018-05-03T00:19:08.423Z,0
2018-05-03T00:20:08.975Z,0
2018-05-03T00:21:09.526Z,0
2018-05-03T00:22:10.076Z,0
2018-05-03T00:23:10.630Z,0
2018-05-03T00:24:11.171Z,0
2018-05-03T00:25:11.713Z,0
2018-05-03T00:26:12.265Z,0
2018-05-03T00:27:12.817Z,0
2018-05-03T00:28:13.354Z,0
2018-05-03T00:29:13.899Z,0
2018-05-03T00:30:14.447Z,0
2018-05-03T00:31:15.006Z,0
2018-05-03T00:32:15.548Z,0
2018-05-03T00:33:16.093Z,0
2018-05-03T00:34:16.638Z,0
2018-05-03T00:35:17.183Z,0
2018-05-03T00:36:17.729Z,0
2018-05-03T00:37:18.278Z,0
2018-05-03T00:38:18.824Z,0
2018-05-03T00:39:19.371Z,0
2018-05-03T00:40:19.919Z,0
2018-05-03T00:41:20.469Z,0
2018-05-03T00:42:21.019Z,0
2018-05-03T00:43:21.559Z,0
2018-05-03T00:44:22.106Z,0
2018-05-03T00:45:22.650Z,0
2018-05-03T00:46:23.202Z,0
2018-05-03T00:47:23.754Z,0
2018-05-03T00:48:24.303Z,0
2018-05-03T00:49:24.854Z,0
2018-05-03T00:50:25.394Z,0
2018-05-03T00:51:25.944Z,0
2018-05-03T00:52:26.493Z,0
2018-05-03T00:53:27.044Z,0
2018-05-03T00:54:27.591Z,0
2018-05-03T00:55:28.136Z,0
2018-05-03T00:56:28.684Z,0
2018-05-03T00:57:29.232Z,0
2018-05-03T00:58:29.778Z,0
2018-05-03T00:59:30.323Z,0
2018-05-03T01:00:30.863Z,0
2018-05-03T01:01:31.417Z,0
2018-05-03T01:02:31.960Z,0
2018-05-03T01:03:32.507Z,0
2018-05-03T01:04:33.058Z,0
2018-05-03T01:05:33.608Z,0
2018-05-03T01:06:34.155Z,0
2018-05-03T01:07:34.704Z,0
2018-05-03T01:08:35.249Z,0
2018-05-03T01:09:35.800Z,0
2018-05-03T01:10:36.346Z,0
2018-05-03T01:11:36.896Z,0
2018-05-03T01:12:37.445Z,0
2018-05-03T01:13:37.992Z,0
2018-05-03T01:14:38.544Z,0
2018-05-03T01:15:39.092Z,0
2018-05-03T01:16:39.640Z,0
2018-05-03T01:17:40.183Z,0
2018-05-03T01:18:40.730Z,0
2018-05-03T01:19:41.283Z,0
2018-05-03T01:20:41.830Z,0
2018-05-03T01:21:42.373Z,0
2018-05-03T01:22:42.924Z,0
2018-05-03T01:23:43.468Z,0
2018-05-03T01:24:44.013Z,0
2018-05-03T01:25:44.559Z,0
2018-05-03T01:26:45.109Z,0
2018-05-03T01:27:45.655Z,0
2018-05-03T01:28:46.201Z,0
2018-05-03T01:29:46.748Z,0
2018-05-03T01:30:47.299Z,0
2018-05-03T01:31:47.844Z,0
2018-05-03T01:32:48.391Z,0
2018-05-03T01:33:48.940Z,0
2018-05-03T01:34:49.493Z,0
2018-05-03T01:35:50.037Z,0
2018-05-03T01:36:50.586Z,0
2018-05-03T01:37:51.129Z,0
2018-05-03T01:38:51.690Z,0
2018-05-03T01:39:52.228Z,0
2018-05-03T01:40:52.776Z,0
2018-05-03T01:41:53.319Z,0
2018-05-03T01:42:53.876Z,0
2018-05-03T01:43:54.418Z,0
2018-05-03T01:44:54.960Z,0
2018-05-03T01:45:55.508Z,0
2018-05-03T01:46:56.049Z,0
2018-05-03T01:47:56.600Z,0
2018-05-03T01:48:57.148Z,0
2018-05-03T01:49:57.696Z,0
2018-05-03T01:50:58.246Z,0
2018-05-03T01:51:58.799Z,0
2018-05-03T01:52:59.347Z,0
2018-05-03T01:53:59.895Z,0
2018-05-03T01:55:00.447Z,0
2018-05-03T01:56:00.986Z,0
2018-05-03T01:57:01.529Z,0
2018-05-03T01:58:02.084Z,0
2018-05-03T01:59:02.630Z,0
2018-05-03T02:00:03.175Z,0
2018-05-03T02:01:03.725Z,0
2018-05-03T02:02:04.264Z,0
2018-05-03T02:03:04.808Z,0
2018-05-03T02:04:05.358Z,0
2018-05-03T02:05:05.909Z,0
2018-05-03T02:06:06.456Z,0
2018-05-03T02:07:07.001Z,0
2018-05-03T02:08:07.551Z,0
2018-05-03T02:09:08.101Z,0
2018-05-03T02:10:08.645Z,0
2018-05-03T02:11:09.191Z,0
2018-05-03T02:12:09.744Z,0
2018-05-03T02:13:10.290Z,0
2018-05-03T02:14:10.844Z,0
2018-05-03T02:15:11.396Z,0
2018-05-03T02:16:11.934Z,0
2018-05-03T02:17:12.488Z,0
2018-05-03T02:18:13.038Z,0
2018-05-03T02:19:13.588Z,0
2018-05-03T02:20:14.134Z,0
2018-05-03T02:21:14.683Z,0
2018-05-03T02:22:15.232Z,0
2018-05-03T02:23:15.780Z,0
2018-05-03T02:24:16.332Z,0
2018-05-03T02:25:16.873Z,0
2018-05-03T02:26:17.425Z,0
2018-05-03T02:27:17.969Z,0
2018-05-03T02:28:18.518Z,0
2018-05-03T02:29:19.066Z,0
2018-05-03T02:30:19.613Z,0
2018-05-03T02:31:20.160Z,0
2018-05-03T02:32:20.707Z,0
2018-05-03T02:33:21.256Z,0
2018-05-03T02:34:21.809Z,0
2018-05-03T02:35:22.363Z,0
2018-05-03T02:36:22.914Z,0
2018-05-03T02:37:23.451Z,0
2018-05-03T02:38:24.077Z,0
2018-05-03T02:39:24.551Z,0
2018-05-03T02:40:25.100Z,0
2018-05-03T02:41:25.643Z,0
2018-05-03T02:42:26.194Z,0
2018-05-03T02:43:26.745Z,0
2018-05-03T02:44:27.302Z,0
2018-05-03T02:45:27.844Z,0
2018-05-03T02:46:28.394Z,0
2018-05-03T02:47:28.941Z,0
2018-05-03T02:48:29.488Z,0
2018-05-03T02:49:30.036Z,0
2018-05-03T02:50:30.579Z,0
2018-05-03T02:51:31.121Z,0
2018-05-03T02:52:31.671Z,0
2018-05-03T02:53:32.218Z,0
2018-05-03T02:54:32.772Z,0
2018-05-03T02:55:33.309Z,0
2018-05-03T02:56:33.854Z,0
2018-05-03T02:57:34.399Z,0
2018-05-03T02:58:34.940Z,0
2018-05-03T02:59:35.489Z,0
2018-05-03T03:00:36.038Z,0
2018-05-03T03:01:36.590Z,0
2018-05-03T03:02:37.136Z,0
2018-05-03T03:03:37.684Z,0
2018-05-03T03:04:38.232Z,0
2018-05-03T03:05:38.781Z,0
2018-05-03T03:06:39.331Z,0
2018-05-03T03:07:39.881Z,0
2018-05-03T03:08:40.441Z,0
2018-05-03T03:09:41.048Z,0
2018-05-03T03:10:41.521Z,0
2018-05-03T03:11:42.073Z,0
2018-05-03T03:12:42.618Z,0
2018-05-03T03:13:43.160Z,0
2018-05-03T03:14:43.708Z,0
2018-05-03T03:15:44.256Z,0
2018-05-03T03:16:44.809Z,0
2018-05-03T03:17:45.350Z,0
2018-05-03T03:18:45.892Z,0
2018-05-03T03:19:46.450Z,0
2018-05-03T03:20:46.986Z,0
2018-05-03T03:21:47.538Z,0
2018-05-03T03:22:48.075Z,0
2018-05-03T03:23:48.617Z,0
2018-05-03T03:24:49.168Z,0
2018-05-03T03:25:49.711Z,0
2018-05-03T03:26:50.263Z,0
2018-05-03T03:27:50.819Z,0
2018-05-03T03:28:51.363Z,0
2018-05-03T03:29:51.909Z,0
2018-05-03T03:30:52.451Z,0
2018-05-03T03:31:52.995Z,0
2018-05-03T03:32:53.550Z,0
2018-05-03T03:33:54.096Z,0
2018-05-03T03:34:54.645Z,0
2018-05-03T03:35:55.198Z,0
2018-05-03T03:36:55.741Z,0
2018-05-03T03:37:56.291Z,0
2018-05-03T03:38:56.837Z,0
2018-05-03T03:39:57.383Z,0
2018-05-03T03:40:57.931Z,0
2018-05-03T03:41:58.477Z,0
2018-05-03T03:42:59.073Z,0
2018-05-03T03:43:59.617Z,0
2018-05-03T03:45:00.170Z,0
2018-05-03T03:46:00.714Z,0
2018-05-03T03:47:01.267Z,0
2018-05-03T03:48:01.812Z,0
2018-05-03T03:49:02.356Z,0
2018-05-03T03:50:02.904Z,0
2018-05-03T03:51:03.454Z,0
2018-05-03T03:52:04.004Z,0
2018-05-03T03:53:04.555Z,0
2018-05-03T03:54:05.101Z,0
2018-05-03T03:55:05.645Z,0
2018-05-03T03:56:06.196Z,0
2018-05-03T03:57:06.745Z,5
2018-05-03T03:58:07.296Z,5
2018-05-03T03:59:07.875Z,5
2018-05-03T04:00:08.387Z,5
2018-05-03T04:01:08.933Z,5
2018-05-03T04:02:09.485Z,5
2018-05-03T04:03:10.034Z,5
2018-05-03T04:04:10.585Z,10
2018-05-03T04:05:11.129Z,10
2018-05-03T04:06:11.674Z,10
2018-05-03T04:07:12.233Z,10
2018-05-03T04:08:12.783Z,10
2018-05-03T04:09:13.333Z,10
2018-05-03T04:10:13.883Z,15
2018-05-03T04:11:14.439Z,15
2018-05-03T04:12:14.985Z,15
2018-05-03T04:13:15.539Z,15
2018-05-03T04:14:16.087Z,20
2018-05-03T04:15:16.639Z,20
2018-05-03T04:16:17.185Z,20
2018-05-03T04:17:17.735Z,25
2018-05-03T04:18:18.284Z,25
2018-05-03T04:19:18.839Z,25
2018-05-03T04:20:19.388Z,30
2018-05-03T04:21:19.937Z,30
2018-05-03T04:22:20.537Z,30
2018-05-03T04:23:21.030Z,35
2018-05-03T04:24:21.581Z,35
2018-05-03T04:25:22.131Z,40
2018-05-03T04:26:22.678Z,40
2018-05-03T04:27:23.227Z,40
2018-05-03T04:28:23.780Z,45
2018-05-03T04:29:24.329Z,45
2018-05-03T04:30:24.878Z,50
2018-05-03T04:31:25.423Z,55
2018-05-03T04:32:25.968Z,55
2018-05-03T04:33:26.521Z,55
2018-05-03T04:34:27.082Z,55
2018-05-03T04:35:27.624Z,60
2018-05-03T04:36:28.181Z,65
2018-05-03T04:37:28.732Z,65
2018-05-03T04:38:29.284Z,70
2018-05-03T04:39:29.841Z,75
2018-05-03T04:40:30.388Z,75
2018-05-03T04:41:30.941Z,80
2018-05-03T04:42:31.494Z,80
2018-05-03T04:43:32.046Z,85
2018-05-03T04:44:32.593Z,90
2018-05-03T04:45:33.197Z,95
2018-05-03T04:46:33.740Z,95
2018-05-03T04:47:34.291Z,95
2018-05-03T04:48:34.859Z,100
2018-05-03T04:49:35.395Z,105
2018-05-03T04:50:35.950Z,110
2018-05-03T04:51:36.508Z,115
2018-05-03T04:52:37.053Z,120
2018-05-03T04:53:37.607Z,120
2018-05-03T04:54:38.160Z,125
2018-05-03T04:55:38.721Z,130
2018-05-03T04:56:39.271Z,130
2018-05-03T04:57:39.822Z,135
2018-05-03T04:58:40.370Z,140
2018-05-03T04:59:40.928Z,145
2018-05-03T05:00:41.478Z,145
2018-05-03T05:01:42.031Z,150
2018-05-03T05:02:42.581Z,155
2018-05-03T05:03:43.130Z,160
2018-05-03T05:04:43.750Z,165
2018-05-03T05:05:44.232Z,170
2018-05-03T05:06:44.784Z,170
2018-05-03T05:07:45.334Z,175
2018-05-03T05:08:45.959Z,180
2018-05-03T05:09:46.438Z,185
2018-05-03T05:10:46.992Z,190
2018-05-03T05:11:47.544Z,195
2018-05-03T05:12:48.091Z,200
2018-05-03T05:13:48.641Z,205
2018-05-03T05:14:49.191Z,205
2018-05-03T05:15:49.757Z,210
2018-05-03T05:16:50.304Z,215
2018-05-03T05:17:50.883Z,220
2018-05-03T05:18:51.417Z,225
2018-05-03T05:19:51.962Z,230
2018-05-03T05:20:52.516Z,240
2018-05-03T05:21:53.067Z,240
2018-05-03T05:22:53.623Z,245
2018-05-03T05:23:54.177Z,250
2018-05-03T05:24:54.732Z,260
2018-05-03T05:25:55.284Z,270
2018-05-03T05:26:55.839Z,270
2018-05-03T05:27:56.394Z,275
2018-05-03T05:28:56.941Z,275
2018-05-03T05:29:57.498Z,285
2018-05-03T05:30:58.045Z,295
2018-05-03T05:31:58.596Z,310
2018-05-03T05:32:59.153Z,315
2018-05-03T05:33:59.708Z,320
2018-05-03T05:35:00.270Z,330
2018-05-03T05:36:00.824Z,340
2018-05-03T05:37:01.375Z,370
2018-05-03T05:38:01.930Z,350
2018-05-03T05:39:02.555Z,330
2018-05-03T05:40:03.035Z,335
2018-05-03T05:41:03.592Z,360
2018-05-03T05:42:04.151Z,450
2018-05-03T05:43:04.702Z,375
2018-05-03T05:44:05.265Z,415
2018-05-03T05:45:05.814Z,370
2018-05-03T05:46:06.370Z,355
2018-05-03T05:47:06.926Z,355
2018-05-03T05:48:07.485Z,400
2018-05-03T05:49:08.042Z,410
2018-05-03T05:50:08.599Z,475
2018-05-03T05:51:09.243Z,400
2018-05-03T05:52:09.715Z,385
2018-05-03T05:53:10.262Z,380
2018-05-03T05:54:10.837Z,460
2018-05-03T05:55:11.409Z,570
2018-05-03T05:56:11.958Z,535
2018-05-03T05:57:12.567Z,445
2018-05-03T05:58:13.072Z,420
2018-05-03T05:59:13.631Z,400
2018-05-03T06:00:14.188Z,460
2018-05-03T06:01:14.745Z,540
2018-05-03T06:02:15.372Z,480
2018-05-03T06:03:15.875Z,630
2018-05-03T06:04:16.485Z,600
2018-05-03T06:05:16.994Z,565
2018-05-03T06:06:17.553Z,470
2018-05-03T06:07:18.117Z,485
2018-05-03T06:08:18.682Z,425
2018-05-03T06:09:19.272Z,430
2018-05-03T06:10:19.822Z,430
2018-05-03T06:11:20.363Z,450
2018-05-03T06:12:20.991Z,535
2018-05-03T06:13:21.496Z,470
2018-05-03T06:14:22.062Z,460
2018-05-03T06:15:22.620Z,440
2018-05-03T06:16:23.181Z,460
2018-05-03T06:17:23.737Z,605
2018-05-03T06:18:24.292Z,660
2018-05-03T06:19:24.853Z,560
2018-05-03T06:20:25.412Z,710
2018-05-03T06:21:25.976Z,605
2018-05-03T06:22:26.544Z,540
2018-05-03T06:23:27.107Z,570
2018-05-03T06:24:27.668Z,535
2018-05-03T06:25:28.229Z,605
2018-05-03T06:26:28.791Z,720
2018-05-03T06:27:29.357Z,610
2018-05-03T06:28:29.916Z,550
2018-05-03T06:29:30.477Z,515
2018-05-03T06:30:31.037Z,560
2018-05-03T06:31:31.596Z,630
2018-05-03T06:32:32.159Z,825
2018-05-03T06:33:32.719Z,765
2018-05-03T06:34:33.276Z,750
2018-05-03T06:35:33.839Z,620
2018-05-03T06:36:34.395Z,665
2018-05-03T06:37:34.958Z,625
2018-05-03T06:38:35.520Z,780
2018-05-03T06:39:36.084Z,745
2018-05-03T06:40:36.645Z,680
2018-05-03T06:41:37.214Z,720
2018-05-03T06:42:37.765Z,815
2018-05-03T06:43:38.329Z,850
2018-05-03T06:44:38.895Z,995
2018-05-03T06:45:39.468Z,960
2018-05-03T06:46:40.029Z,845
2018-05-03T06:47:40.593Z,755
2018-05-03T06:48:41.157Z,695
2018-05-03T06:49:41.725Z,875
2018-05-03T06:50:42.290Z,840
2018-05-03T06:51:42.849Z,1095
2018-05-03T06:52:43.416Z,1095
2018-05-03T06:53:43.994Z,1045
2018-05-03T06:54:44.557Z,1040
2018-05-03T06:55:45.118Z,1060
2018-05-03T06:56:45.683Z,990
2018-05-03T06:57:46.253Z,970
2018-05-03T06:58:46.821Z,1040
2018-05-03T06:59:47.394Z,820
2018-05-03T07:00:47.962Z,900
2018-05-03T07:01:48.529Z,685
2018-05-03T07:02:49.100Z,675
2018-05-03T07:03:49.677Z,780
2018-05-03T07:04:50.244Z,1120
2018-05-03T07:05:50.813Z,1165
2018-05-03T07:06:51.372Z,1165
2018-05-03T07:07:51.935Z,1205
2018-05-03T07:08:52.514Z,1155
2018-05-03T07:09:53.102Z,1125
2018-05-03T07:10:53.691Z,1150
2018-05-03T07:11:54.222Z,1110
2018-05-03T07:12:54.795Z,1080
2018-05-03T07:13:55.369Z,950
2018-05-03T07:14:55.933Z,1135
2018-05-03T07:15:56.498Z,1035
2018-05-03T07:16:57.073Z,1220
2018-05-03T07:17:57.645Z,1265
2018-05-03T07:18:58.220Z,1290
2018-05-03T07:19:58.786Z,1220
2018-05-03T07:20:59.358Z,1290
2018-05-03T07:21:59.946Z,1285
2018-05-03T07:23:00.497Z,970
2018-05-03T07:24:01.069Z,925
2018-05-03T07:25:01.640Z,1115
2018-05-03T07:26:02.204Z,1170
2018-05-03T07:27:02.775Z,1070
2018-05-03T07:28:03.344Z,925
2018-05-03T07:29:03.915Z,985
2018-05-03T07:30:04.481Z,1080
2018-05-03T07:31:05.053Z,965
2018-05-03T07:32:05.625Z,1075
2018-05-03T07:33:06.187Z,845
2018-05-03T07:34:06.756Z,945
2018-05-03T07:35:07.317Z,985
2018-05-03T07:36:07.882Z,1030
2018-05-03T07:37:08.450Z,1150
2018-05-03T07:38:09.030Z,995
2018-05-03T07:39:09.582Z,1165
2018-05-03T07:40:10.162Z,1305
2018-05-03T07:41:10.739Z,1315
2018-05-03T07:42:11.313Z,1060
2018-05-03T07:43:11.897Z,835
2018-05-03T07:44:12.461Z,1025
2018-05-03T07:45:13.040Z,1035
2018-05-03T07:46:13.610Z,1015
2018-05-03T07:47:14.176Z,1050
2018-05-03T07:48:14.745Z,1035
2018-05-03T07:49:15.312Z,1475
2018-05-03T07:50:15.884Z,1385
2018-05-03T07:51:16.444Z,1215
2018-05-03T07:52:17.236Z,1470
2018-05-03T07:53:17.822Z,1340
2018-05-03T07:54:18.389Z,1435
2018-05-03T07:55:18.953Z,1410
2018-05-03T07:56:19.524Z,1145
2018-05-03T07:57:20.086Z,1350
2018-05-03T07:58:20.662Z,1115
2018-05-03T07:59:21.233Z,975
2018-05-03T08:00:21.814Z,1070
2018-05-03T08:01:22.379Z,1170
2018-05-03T08:02:22.945Z,1255
2018-05-03T08:03:23.528Z,1345
2018-05-03T08:04:24.095Z,1075
2018-05-03T08:05:24.670Z,1215
2018-05-03T08:06:25.237Z,1140
2018-05-03T08:07:25.800Z,975
2018-05-03T08:08:26.371Z,1140
2018-05-03T08:09:26.945Z,1380
2018-05-03T08:10:27.516Z,1095
2018-05-03T08:11:28.085Z,1180
2018-05-03T08:12:28.668Z,1355
2018-05-03T08:13:29.508Z,1250
2018-05-03T08:14:30.038Z,1120
2018-05-03T08:15:30.611Z,1540
2018-05-03T08:16:31.181Z,1530
2018-05-03T08:17:31.758Z,1680
2018-05-03T08:18:32.345Z,1460
2018-05-03T08:19:32.929Z,1295
2018-05-03T08:20:33.509Z,1390
2018-05-03T08:21:34.093Z,1070
2018-05-03T08:22:34.670Z,1285
2018-05-03T08:23:35.243Z,1190
2018-05-03T08:24:35.811Z,1415
2018-05-03T08:25:36.386Z,1255
2018-05-03T08:26:36.966Z,1200
2018-05-03T08:27:37.546Z,1315
2018-05-03T08:28:38.165Z,1265
2018-05-03T08:29:38.696Z,1485
2018-05-03T08:30:39.272Z,1580
2018-05-03T08:31:39.861Z,1295
2018-05-03T08:32:40.411Z,1060
2018-05-03T08:33:40.965Z,1625
2018-05-03T08:34:41.531Z,1430
2018-05-03T08:35:42.095Z,1540
2018-05-03T08:36:42.659Z,1450
2018-05-03T08:37:43.228Z,1325
2018-05-03T08:38:43.800Z,1640
2018-05-03T08:39:44.369Z,1735
2018-05-03T08:40:44.937Z,1235
2018-05-03T08:41:45.501Z,1900
2018-05-03T08:42:46.075Z,1820
2018-05-03T08:43:46.650Z,1680
2018-05-03T08:44:47.218Z,1920
2018-05-03T08:45:47.783Z,2015
2018-05-03T08:46:48.355Z,2075
2018-05-03T08:47:48.929Z,1755
2018-05-03T08:48:49.490Z,860
2018-05-03T08:49:50.065Z,1690
2018-05-03T08:50:50.636Z,2010
2018-05-03T08:51:51.209Z,1825
2018-05-03T08:52:51.772Z,1985
2018-05-03T08:53:52.355Z,1775
2018-05-03T08:54:52.921Z,1505
2018-05-03T08:55:53.533Z,1560
2018-05-03T08:56:54.074Z,1890
2018-05-03T08:57:54.626Z,1790
2018-05-03T08:58:55.217Z,1290
2018-05-03T08:59:55.801Z,1645
2018-05-03T09:00:56.453Z,2055
2018-05-03T09:01:56.978Z,2275
2018-05-03T09:02:57.767Z,2355
2018-05-03T09:03:58.358Z,1140
2018-05-03T09:04:58.949Z,1520
2018-05-03T09:05:59.534Z,1735
2018-05-03T09:07:00.122Z,1950
2018-05-03T09:08:00.707Z,845
2018-05-03T09:09:01.291Z,885
2018-05-03T09:10:01.874Z,695
2018-05-03T09:11:02.455Z,730
2018-05-03T09:12:03.022Z,700
2018-05-03T09:13:03.600Z,625
2018-05-03T09:14:04.181Z,625
2018-05-03T09:15:04.757Z,655
2018-05-03T09:16:05.336Z,930
2018-05-03T09:17:05.923Z,1590
2018-05-03T09:18:06.505Z,690
2018-05-03T09:19:07.078Z,715
2018-05-03T09:20:07.660Z,725
2018-05-03T09:21:08.242Z,675
2018-05-03T09:22:08.806Z,620
2018-05-03T09:23:09.374Z,610
2018-05-03T09:24:09.950Z,660
2018-05-03T09:25:10.534Z,735
2018-05-03T09:26:11.303Z,905
2018-05-03T09:27:11.883Z,755
2018-05-03T09:28:12.455Z,670
2018-05-03T09:29:13.007Z,655
2018-05-03T09:30:13.779Z,650
2018-05-03T09:31:14.355Z,700
2018-05-03T09:32:14.915Z,1560
2018-05-03T09:33:15.495Z,850
2018-05-03T09:34:16.059Z,875
2018-05-03T09:35:16.639Z,900
2018-05-03T09:36:17.210Z,1100
2018-05-03T09:37:17.782Z,2455
2018-05-03T09:38:18.366Z,2400
2018-05-03T09:39:18.932Z,2485
2018-05-03T09:40:19.497Z,2450
2018-05-03T09:41:20.067Z,2525
2018-05-03T09:42:20.638Z,2985
2018-05-03T09:43:21.226Z,2300
2018-05-03T09:44:21.800Z,1810
2018-05-03T09:45:22.370Z,2005
2018-05-03T09:46:22.935Z,2690
2018-05-03T09:47:23.565Z,1390
2018-05-03T09:48:24.134Z,2005
2018-05-03T09:49:24.731Z,2385
2018-05-03T09:50:25.350Z,2750
2018-05-03T09:51:25.883Z,2575
2018-05-03T09:52:26.499Z,2895
2018-05-03T09:53:27.026Z,2535
2018-05-03T09:54:27.596Z,1080
2018-05-03T09:55:28.176Z,980
2018-05-03T09:56:28.982Z,1060
2018-05-03T09:57:29.769Z,1300
2018-05-03T09:58:30.352Z,2425
2018-05-03T09:59:30.968Z,2725
2018-05-03T10:00:31.514Z,2310
2018-05-03T10:01:32.104Z,2625
2018-05-03T10:02:32.681Z,2670
2018-05-03T10:03:33.249Z,2505
2018-05-03T10:04:33.827Z,2525
2018-05-03T10:05:34.398Z,2065
2018-05-03T10:06:34.986Z,2010
2018-05-03T10:07:35.570Z,2135
2018-05-03T10:08:36.224Z,2550
2018-05-03T10:09:37.036Z,2780
2018-05-03T10:10:37.821Z,1250
2018-05-03T10:11:38.405Z,1335
2018-05-03T10:12:38.988Z,3020
2018-05-03T10:13:39.575Z,2725
2018-05-03T10:14:40.244Z,2750
2018-05-03T10:15:40.749Z,1675
2018-05-03T10:16:41.530Z,2550
2018-05-03T10:17:42.107Z,2215
2018-05-03T10:18:42.691Z,1310
2018-05-03T10:19:43.404Z,1330
2018-05-03T10:20:43.970Z,1850
2018-05-03T10:21:44.541Z,1710
2018-05-03T10:22:45.127Z,1965
2018-05-03T10:23:45.691Z,895
2018-05-03T10:24:46.273Z,835
2018-05-03T10:25:46.845Z,820
2018-05-03T10:26:47.654Z,815
2018-05-03T10:27:48.227Z,835
2018-05-03T10:28:48.812Z,860
2018-05-03T10:29:49.392Z,1460
2018-05-03T10:30:49.962Z,1515
2018-05-03T10:31:50.538Z,1540
2018-05-03T10:32:51.132Z,1755
2018-05-03T10:33:51.923Z,2010
2018-05-03T10:34:52.471Z,2230
2018-05-03T10:35:53.118Z,2310
2018-05-03T10:36:53.611Z,2345
2018-05-03T10:37:54.225Z,1655
2018-05-03T10:38:54.810Z,2320
2018-05-03T10:39:55.394Z,2515
2018-05-03T10:40:55.981Z,1340
2018-05-03T10:41:56.594Z,1515
2018-05-03T10:42:57.143Z,1695
2018-05-03T10:43:57.725Z,2710
2018-05-03T10:44:58.314Z,3005
2018-05-03T10:45:58.886Z,2925
2018-05-03T10:46:59.676Z,2545
2018-05-03T10:48:00.451Z,2695
2018-05-03T10:49:01.040Z,2845
2018-05-03T10:50:01.617Z,2975
2018-05-03T10:51:02.192Z,3120
2018-05-03T10:52:02.782Z,2795
2018-05-03T10:53:03.368Z,2570
2018-05-03T10:54:04.154Z,2965
2018-05-03T10:55:04.741Z,2445
2018-05-03T10:56:05.326Z,2135
2018-05-03T10:57:05.916Z,1235
2018-05-03T10:58:07.489Z,1110
2018-05-03T10:59:08.277Z,1910
2018-05-03T11:00:08.863Z,1165
2018-05-03T11:01:09.447Z,2260
2018-05-03T11:02:10.259Z,2290
2018-05-03T11:03:10.856Z,2740
2018-05-03T11:04:11.446Z,3305
2018-05-03T11:05:12.231Z,2755
2018-05-03T11:06:12.802Z,2485
2018-05-03T11:07:13.376Z,2195
2018-05-03T11:08:13.958Z,2305
2018-05-03T11:09:14.543Z,1235
2018-05-03T11:10:15.116Z,1120
2018-05-03T11:11:15.781Z,1210
2018-05-03T11:12:16.935Z,2585
2018-05-03T11:13:17.646Z,2645
2018-05-03T11:14:18.227Z,2755
2018-05-03T11:15:18.813Z,2760
2018-05-03T11:16:19.389Z,3330
2018-05-03T11:17:19.972Z,2240
2018-05-03T11:18:20.562Z,3035
2018-05-03T11:19:21.147Z,3345
2018-05-03T11:20:21.934Z,3025
2018-05-03T11:21:22.520Z,3210
2018-05-03T11:22:23.106Z,3410
2018-05-03T11:23:23.677Z,1580
2018-05-03T11:24:24.268Z,2325
2018-05-03T11:25:24.835Z,1520
2018-05-03T11:26:25.421Z,2360
2018-05-03T11:27:25.997Z,2590
2018-05-03T11:28:26.579Z,2485
2018-05-03T11:29:27.168Z,2945
2018-05-03T11:30:27.749Z,1185
2018-05-03T11:31:28.394Z,1245
2018-05-03T11:32:28.924Z,3225
2018-05-03T11:33:29.509Z,2755
2018-05-03T11:34:30.083Z,2215
2018-05-03T11:35:30.666Z,2665
2018-05-03T11:36:31.449Z,2820
2018-05-03T11:37:32.233Z,2925
2018-05-03T11:38:32.809Z,1465
2018-05-03T11:39:33.388Z,2230
2018-05-03T11:40:33.962Z,1310
2018-05-03T11:41:34.666Z,1290
2018-05-03T11:42:35.422Z,2750
2018-05-03T11:43:35.958Z,3195
2018-05-03T11:44:36.535Z,3240
2018-05-03T11:45:37.109Z,1645
2018-05-03T11:46:37.700Z,1505
2018-05-03T11:47:38.285Z,2795
2018-05-03T11:48:38.859Z,3220
2018-05-03T11:49:39.434Z,3105
2018-05-03T11:50:40.018Z,3410
2018-05-03T11:51:40.605Z,3220
2018-05-03T11:52:41.192Z,3205
2018-05-03T11:53:41.777Z,3130
2018-05-03T11:54:42.349Z,3070
2018-05-03T11:55:43.051Z,3180
2018-05-03T11:56:43.637Z,3105
2018-05-03T11:57:44.224Z,3150
2018-05-03T11:58:44.807Z,3140
2018-05-03T11:59:45.382Z,3185
2018-05-03T12:00:46.518Z,3035
2018-05-03T12:01:47.110Z,3260
2018-05-03T12:02:47.697Z,2790
2018-05-03T12:03:48.267Z,2585
2018-05-03T12:04:48.851Z,2570
2018-05-03T12:05:49.422Z,2160
2018-05-03T12:06:50.014Z,2470
2018-05-03T12:07:50.600Z,2925
2018-05-03T12:08:51.386Z,2370
2018-05-03T12:09:52.088Z,3190
2018-05-03T12:10:52.665Z,2965
2018-05-03T12:11:53.244Z,2500
2018-05-03T12:12:53.818Z,2660
2018-05-03T12:13:54.398Z,2960
2018-05-03T12:14:54.965Z,2900
2018-05-03T12:15:55.541Z,3405
2018-05-03T12:16:56.104Z,3375
2018-05-03T12:17:56.679Z,3140
2018-05-03T12:18:57.248Z,2635
2018-05-03T12:19:57.812Z,2905
2018-05-03T12:20:58.389Z,3265
2018-05-03T12:21:58.954Z,3015
2018-05-03T12:22:59.544Z,3140
2018-05-03T12:24:00.131Z,2940
2018-05-03T12:25:00.721Z,2415
2018-05-03T12:26:01.310Z,3190
2018-05-03T12:27:01.894Z,2745
2018-05-03T12:28:02.475Z,2720
2018-05-03T12:29:03.068Z,3190
2018-05-03T12:30:03.852Z,3385
2018-05-03T12:31:04.437Z,3325
2018-05-03T12:32:05.006Z,3530
2018-05-03T12:33:05.574Z,3265
2018-05-03T12:34:06.172Z,3465
2018-05-03T12:35:06.756Z,3335
2018-05-03T12:36:07.342Z,3175
2018-05-03T12:37:07.925Z,3345
2018-05-03T12:38:08.513Z,1850
2018-05-03T12:39:09.095Z,1600
2018-05-03T12:40:09.671Z,1335
2018-05-03T12:41:10.234Z,2420
2018-05-03T12:42:10.810Z,2965
2018-05-03T12:43:11.393Z,2615
2018-05-03T12:44:11.974Z,2185
2018-05-03T12:45:12.565Z,2100
2018-05-03T12:46:13.161Z,1985
2018-05-03T12:47:13.738Z,2345
2018-05-03T12:48:14.307Z,2540
2018-05-03T12:49:14.897Z,2890
2018-05-03T12:50:15.687Z,3275
2018-05-03T12:51:16.273Z,3090
2018-05-03T12:52:16.846Z,2885
2018-05-03T12:53:17.434Z,3075
2018-05-03T12:54:18.026Z,2200
2018-05-03T12:55:18.611Z,1820
2018-05-03T12:56:19.423Z,2050
2018-05-03T12:57:19.996Z,1665
2018-05-03T12:58:20.581Z,2210
2018-05-03T12:59:21.160Z,2350
2018-05-03T13:00:21.742Z,1935
2018-05-03T13:01:22.319Z,2050
2018-05-03T13:02:22.890Z,1700
2018-05-03T13:03:23.459Z,1505
2018-05-03T13:04:24.046Z,1380
2018-05-03T13:05:24.629Z,1415
2018-05-03T13:06:25.193Z,1445
2018-05-03T13:07:25.771Z,1345
2018-05-03T13:08:26.355Z,1275
2018-05-03T13:09:26.936Z,1270
2018-05-03T13:10:27.507Z,1315
2018-05-03T13:11:28.074Z,1380
2018-05-03T13:12:28.656Z,1380
2018-05-03T13:13:29.244Z,1280
2018-05-03T13:14:30.035Z,1250
2018-05-03T13:15:30.617Z,1335
2018-05-03T13:16:31.203Z,1295
2018-05-03T13:17:31.787Z,1565
2018-05-03T13:18:32.376Z,1795
2018-05-03T13:19:32.949Z,2030
2018-05-03T13:20:33.533Z,2260
2018-05-03T13:21:34.118Z,3085
2018-05-03T13:22:34.699Z,3155
2018-05-03T13:23:35.287Z,3525
2018-05-03T13:24:35.857Z,3515
2018-05-03T13:25:36.441Z,3150
2018-05-03T13:26:37.029Z,3555
2018-05-03T13:27:37.618Z,3430
2018-05-03T13:28:38.203Z,2945
2018-05-03T13:29:38.990Z,2430
2018-05-03T13:30:39.576Z,1985
2018-05-03T13:31:40.156Z,1520
2018-05-03T13:32:40.746Z,1400
2018-05-03T13:33:41.324Z,1630
2018-05-03T13:34:41.896Z,1430
2018-05-03T13:35:42.472Z,1625
2018-05-03T13:36:43.053Z,1555
2018-05-03T13:37:43.633Z,1510
2018-05-03T13:38:44.204Z,1425
2018-05-03T13:39:44.786Z,1160
2018-05-03T13:40:45.359Z,1005
2018-05-03T13:41:45.922Z,960
2018-05-03T13:42:46.505Z,950
2018-05-03T13:43:47.080Z,1005
2018-05-03T13:44:47.656Z,1050
2018-05-03T13:45:48.228Z,1065
2018-05-03T13:46:48.797Z,1030
2018-05-03T13:47:49.363Z,990
2018-05-03T13:48:49.929Z,975
2018-05-03T13:49:50.498Z,945
2018-05-03T13:50:51.068Z,910
2018-05-03T13:51:51.629Z,875
2018-05-03T13:52:52.205Z,830
2018-05-03T13:53:52.782Z,815
2018-05-03T13:54:53.367Z,820
2018-05-03T13:55:53.937Z,780
2018-05-03T13:56:54.512Z,775
2018-05-03T13:57:55.097Z,795
2018-05-03T13:58:55.661Z,845
2018-05-03T13:59:56.244Z,875